Fazeley, United Kingdom
Current Conditions -  °F | °C
As of 5:20 AM on Tuesday 21 Oct 2014 (Local Time) from EGBB Reporting Station
Light Rain Light Rain  
Wind Chill: 54°   Ceiling: 700
Heat Index: 54°   Visibility: 4mi
Dew Point: 52°   Wind: 13mph
Humidity: 94%   Direction: 190°S
Pressure: 29.47"   Gusts: 24mph
Location:  52.61°N, 1.7°W
Report Text: EGBB 210420Z AUTO 19011G21KT 150V220 6000 -RA BKN007/// OVC011/// 12/11 Q0998
Loading
Personal Weather Stations






























Interactive Weather Map
Tropical Storm Tracking
New forecast layout! Learn more

10-Day Weather Forecast

Advertisements
Track Severe Weather on mobile